sensor_id;sensor_type;location;lat;lon;timestamp;P1;durP1;ratioP1;P2;durP2;ratioP2
19798;SDS011;10059;59.850;10.454;2022-12-13T00:00:43;6.63;;;3.00;;
19798;SDS011;10059;59.850;10.454;2022-12-13T00:03:10;6.60;;;3.23;;
19798;SDS011;10059;59.850;10.454;2022-12-13T00:05:41;6.60;;;3.00;;
19798;SDS011;10059;59.850;10.454;2022-12-13T00:08:08;5.33;;;2.80;;
19798;SDS011;10059;59.850;10.454;2022-12-13T00:10:35;5.17;;;2.90;;
19798;SDS011;10059;59.850;10.454;2022-12-13T00:13:02;4.57;;;2.83;;
19798;SDS011;10059;59.850;10.454;2022-12-13T00:15:28;5.30;;;2.90;;
19798;SDS011;10059;59.850;10.454;2022-12-13T00:17:57;6.03;;;3.30;;
19798;SDS011;10059;59.850;10.454;2022-12-13T00:20:23;4.70;;;2.90;;
19798;SDS011;10059;59.850;10.454;2022-12-13T00:22:50;5.47;;;2.90;;
19798;SDS011;10059;59.850;10.454;2022-12-13T00:25:17;4.43;;;2.47;;
19798;SDS011;10059;59.850;10.454;2022-12-13T00:27:45;6.13;;;3.23;;
19798;SDS011;10059;59.850;10.454;2022-12-13T00:30:12;3.73;;;2.53;;
19798;SDS011;10059;59.850;10.454;2022-12-13T00:32:39;6.20;;;3.00;;
19798;SDS011;10059;59.850;10.454;2022-12-13T00:35:07;5.13;;;3.00;;
19798;SDS011;10059;59.850;10.454;2022-12-13T00:37:34;6.13;;;3.10;;
19798;SDS011;10059;59.850;10.454;2022-12-13T00:40:01;5.70;;;3.10;;
19798;SDS011;10059;59.850;10.454;2022-12-13T00:42:28;6.73;;;3.20;;
19798;SDS011;10059;59.850;10.454;2022-12-13T00:44:55;7.40;;;3.50;;
19798;SDS011;10059;59.850;10.454;2022-12-13T00:47:22;6.07;;;3.40;;
19798;SDS011;10059;59.850;10.454;2022-12-13T00:49:48;5.33;;;3.20;;
19798;SDS011;10059;59.850;10.454;2022-12-13T00:52:17;5.40;;;2.90;;
19798;SDS011;10059;59.850;10.454;2022-12-13T00:54:43;6.60;;;2.90;;
19798;SDS011;10059;59.850;10.454;2022-12-13T00:57:10;5.20;;;2.93;;
19798;SDS011;10059;59.850;10.454;2022-12-13T00:59:37;7.13;;;3.60;;
19798;SDS011;10059;59.850;10.454;2022-12-13T01:02:04;5.20;;;3.27;;
19798;SDS011;10059;59.850;10.454;2022-12-13T01:04:31;6.80;;;3.47;;
19798;SDS011;10059;59.850;10.454;2022-12-13T01:06:58;6.77;;;3.50;;
19798;SDS011;10059;59.850;10.454;2022-12-13T01:09:26;5.77;;;3.37;;
19798;SDS011;10059;59.850;10.454;2022-12-13T01:11:55;5.77;;;3.07;;
19798;SDS011;10059;59.850;10.454;2022-12-13T01:14:22;5.20;;;2.87;;
19798;SDS011;10059;59.850;10.454;2022-12-13T01:16:49;5.20;;;2.90;;
19798;SDS011;10059;59.850;10.454;2022-12-13T01:19:19;7.97;;;3.03;;
19798;SDS011;10059;59.850;10.454;2022-12-13T01:21:46;6.03;;;3.00;;
19798;SDS011;10059;59.850;10.454;2022-12-13T01:24:13;6.73;;;2.97;;
19798;SDS011;10059;59.850;10.454;2022-12-13T01:26:45;5.40;;;3.13;;
19798;SDS011;10059;59.850;10.454;2022-12-13T01:29:12;6.73;;;3.20;;
19798;SDS011;10059;59.850;10.454;2022-12-13T01:31:39;5.43;;;3.07;;
19798;SDS011;10059;59.850;10.454;2022-12-13T01:34:06;6.70;;;2.80;;
19798;SDS011;10059;59.850;10.454;2022-12-13T01:36:34;4.63;;;2.80;;
19798;SDS011;10059;59.850;10.454;2022-12-13T01:39:01;4.97;;;2.87;;
19798;SDS011;10059;59.850;10.454;2022-12-13T01:41:29;7.00;;;3.07;;
19798;SDS011;10059;59.850;10.454;2022-12-13T01:43:59;6.67;;;3.20;;
19798;SDS011;10059;59.850;10.454;2022-12-13T01:46:28;5.73;;;2.80;;
19798;SDS011;10059;59.850;10.454;2022-12-13T01:48:57;5.10;;;2.77;;
19798;SDS011;10059;59.850;10.454;2022-12-13T01:51:29;6.77;;;3.20;;
19798;SDS011;10059;59.850;10.454;2022-12-13T01:53:59;5.17;;;2.93;;
19798;SDS011;10059;59.850;10.454;2022-12-13T01:56:29;6.33;;;3.10;;
19798;SDS011;10059;59.850;10.454;2022-12-13T01:59:02;4.63;;;2.73;;
19798;SDS011;10059;59.850;10.454;2022-12-13T02:01:31;4.63;;;2.57;;
19798;SDS011;10059;59.850;10.454;2022-12-13T02:03:59;5.30;;;3.03;;
19798;SDS011;10059;59.850;10.454;2022-12-13T02:06:27;6.43;;;3.07;;
19798;SDS011;10059;59.850;10.454;2022-12-13T02:08:59;6.37;;;3.17;;
19798;SDS011;10059;59.850;10.454;2022-12-13T02:11:26;6.87;;;3.43;;
19798;SDS011;10059;59.850;10.454;2022-12-13T02:13:53;6.13;;;2.90;;
19798;SDS011;10059;59.850;10.454;2022-12-13T02:16:25;5.33;;;3.20;;
19798;SDS011;10059;59.850;10.454;2022-12-13T02:19:05;6.57;;;3.20;;
19798;SDS011;10059;59.850;10.454;2022-12-13T02:21:58;6.67;;;3.67;;
19798;SDS011;10059;59.850;10.454;2022-12-13T02:24:40;5.07;;;3.10;;
19798;SDS011;10059;59.850;10.454;2022-12-13T02:27:27;6.40;;;3.20;;
19798;SDS011;10059;59.850;10.454;2022-12-13T02:35:51;8.33;;;3.70;;
19798;SDS011;10059;59.850;10.454;2022-12-13T02:38:26;8.00;;;3.63;;
19798;SDS011;10059;59.850;10.454;2022-12-13T02:40:59;7.07;;;3.83;;
19798;SDS011;10059;59.850;10.454;2022-12-13T02:43:37;6.63;;;3.63;;
19798;SDS011;10059;59.850;10.454;2022-12-13T02:46:12;8.60;;;3.60;;
19798;SDS011;10059;59.850;10.454;2022-12-13T02:48:41;7.93;;;3.90;;
19798;SDS011;10059;59.850;10.454;2022-12-13T02:51:10;5.97;;;3.43;;
19798;SDS011;10059;59.850;10.454;2022-12-13T02:53:38;6.80;;;3.17;;
19798;SDS011;10059;59.850;10.454;2022-12-13T02:56:06;6.43;;;3.33;;
19798;SDS011;10059;59.850;10.454;2022-12-13T02:58:34;6.90;;;3.50;;
19798;SDS011;10059;59.850;10.454;2022-12-13T03:01:10;6.53;;;3.17;;
19798;SDS011;10059;59.850;10.454;2022-12-13T03:03:52;6.03;;;3.20;;
19798;SDS011;10059;59.850;10.454;2022-12-13T03:06:27;5.43;;;3.17;;
19798;SDS011;10059;59.850;10.454;2022-12-13T03:09:07;6.23;;;3.30;;
19798;SDS011;10059;59.850;10.454;2022-12-13T03:11:44;5.27;;;3.33;;
19798;SDS011;10059;59.850;10.454;2022-12-13T03:14:36;6.33;;;3.17;;
19798;SDS011;10059;59.850;10.454;2022-12-13T03:17:11;5.83;;;2.90;;
19798;SDS011;10059;59.850;10.454;2022-12-13T03:19:41;6.17;;;3.30;;
19798;SDS011;10059;59.850;10.454;2022-12-13T03:22:08;5.77;;;3.20;;
19798;SDS011;10059;59.850;10.454;2022-12-13T03:24:35;5.33;;;3.10;;
19798;SDS011;10059;59.850;10.454;2022-12-13T03:27:03;8.90;;;3.03;;
19798;SDS011;10059;59.850;10.454;2022-12-13T03:29:29;4.90;;;2.97;;
19798;SDS011;10059;59.850;10.454;2022-12-13T03:31:56;6.20;;;3.10;;
19798;SDS011;10059;59.850;10.454;2022-12-13T03:34:25;5.73;;;2.90;;
19798;SDS011;10059;59.850;10.454;2022-12-13T03:36:52;5.00;;;2.90;;
19798;SDS011;10059;59.850;10.454;2022-12-13T03:39:19;7.07;;;2.90;;
19798;SDS011;10059;59.850;10.454;2022-12-13T03:41:46;6.47;;;3.30;;
19798;SDS011;10059;59.850;10.454;2022-12-13T03:44:13;5.23;;;3.07;;
19798;SDS011;10059;59.850;10.454;2022-12-13T03:46:40;6.73;;;3.30;;
19798;SDS011;10059;59.850;10.454;2022-12-13T03:49:07;7.67;;;2.93;;
19798;SDS011;10059;59.850;10.454;2022-12-13T03:51:35;6.23;;;3.10;;
19798;SDS011;10059;59.850;10.454;2022-12-13T03:54:02;7.97;;;3.00;;
19798;SDS011;10059;59.850;10.454;2022-12-13T03:56:29;4.60;;;2.73;;
19798;SDS011;10059;59.850;10.454;2022-12-13T03:58:56;6.17;;;2.90;;
19798;SDS011;10059;59.850;10.454;2022-12-13T04:01:23;7.00;;;3.20;;
19798;SDS011;10059;59.850;10.454;2022-12-13T04:03:49;6.03;;;3.00;;
19798;SDS011;10059;59.850;10.454;2022-12-13T04:06:16;7.00;;;3.37;;
19798;SDS011;10059;59.850;10.454;2022-12-13T04:08:44;6.10;;;2.97;;
19798;SDS011;10059;59.850;10.454;2022-12-13T04:11:11;6.20;;;3.00;;
19798;SDS011;10059;59.850;10.454;2022-12-13T04:13:56;5.10;;;2.83;;
19798;SDS011;10059;59.850;10.454;2022-12-13T04:16:22;6.73;;;3.10;;
19798;SDS011;10059;59.850;10.454;2022-12-13T04:18:49;5.90;;;3.10;;
19798;SDS011;10059;59.850;10.454;2022-12-13T04:21:16;5.63;;;2.50;;
19798;SDS011;10059;59.850;10.454;2022-12-13T04:23:44;5.93;;;3.03;;
19798;SDS011;10059;59.850;10.454;2022-12-13T04:26:11;6.23;;;3.20;;
19798;SDS011;10059;59.850;10.454;2022-12-13T04:28:38;4.83;;;2.80;;
19798;SDS011;10059;59.850;10.454;2022-12-13T04:31:05;5.57;;;3.00;;
19798;SDS011;10059;59.850;10.454;2022-12-13T04:33:32;6.27;;;3.10;;
19798;SDS011;10059;59.850;10.454;2022-12-13T04:35:59;5.63;;;3.03;;
19798;SDS011;10059;59.850;10.454;2022-12-13T04:38:26;6.67;;;3.13;;
19798;SDS011;10059;59.850;10.454;2022-12-13T04:40:54;4.30;;;2.77;;
19798;SDS011;10059;59.850;10.454;2022-12-13T04:43:30;7.13;;;3.30;;
19798;SDS011;10059;59.850;10.454;2022-12-13T04:45:56;6.47;;;2.97;;
19798;SDS011;10059;59.850;10.454;2022-12-13T04:48:23;5.00;;;3.10;;
19798;SDS011;10059;59.850;10.454;2022-12-13T04:50:50;5.97;;;3.03;;
19798;SDS011;10059;59.850;10.454;2022-12-13T04:53:17;6.50;;;3.10;;
19798;SDS011;10059;59.850;10.454;2022-12-13T04:55:44;5.97;;;3.37;;
19798;SDS011;10059;59.850;10.454;2022-12-13T04:58:12;8.67;;;3.57;;
19798;SDS011;10059;59.850;10.454;2022-12-13T05:00:39;4.47;;;2.43;;
19798;SDS011;10059;59.850;10.454;2022-12-13T05:03:06;5.23;;;2.90;;
19798;SDS011;10059;59.850;10.454;2022-12-13T05:05:33;6.17;;;3.00;;
19798;SDS011;10059;59.850;10.454;2022-12-13T05:07:59;5.40;;;2.77;;
19798;SDS011;10059;59.850;10.454;2022-12-13T05:10:26;5.27;;;2.77;;
19798;SDS011;10059;59.850;10.454;2022-12-13T05:12:53;4.90;;;2.80;;
19798;SDS011;10059;59.850;10.454;2022-12-13T05:15:21;5.70;;;2.80;;
19798;SDS011;10059;59.850;10.454;2022-12-13T05:17:48;7.20;;;3.30;;
19798;SDS011;10059;59.850;10.454;2022-12-13T05:20:15;5.60;;;3.03;;
19798;SDS011;10059;59.850;10.454;2022-12-13T05:22:42;7.07;;;2.93;;
19798;SDS011;10059;59.850;10.454;2022-12-13T05:25:09;5.37;;;2.90;;
19798;SDS011;10059;59.850;10.454;2022-12-13T05:27:36;5.03;;;2.73;;
19798;SDS011;10059;59.850;10.454;2022-12-13T05:30:03;5.03;;;2.93;;
19798;SDS011;10059;59.850;10.454;2022-12-13T05:32:32;5.20;;;2.50;;
19798;SDS011;10059;59.850;10.454;2022-12-13T05:35:00;5.87;;;2.80;;
19798;SDS011;10059;59.850;10.454;2022-12-13T05:37:27;5.43;;;2.67;;
19798;SDS011;10059;59.850;10.454;2022-12-13T05:39:54;5.53;;;2.83;;
19798;SDS011;10059;59.850;10.454;2022-12-13T05:42:21;5.83;;;2.70;;
19798;SDS011;10059;59.850;10.454;2022-12-13T05:44:48;7.53;;;4.30;;
19798;SDS011;10059;59.850;10.454;2022-12-13T05:47:16;9.90;;;4.23;;
19798;SDS011;10059;59.850;10.454;2022-12-13T05:49:44;9.33;;;4.10;;
19798;SDS011;10059;59.850;10.454;2022-12-13T05:52:14;6.60;;;3.10;;
19798;SDS011;10059;59.850;10.454;2022-12-13T05:54:42;5.93;;;3.10;;
19798;SDS011;10059;59.850;10.454;2022-12-13T05:57:08;5.60;;;3.17;;
19798;SDS011;10059;59.850;10.454;2022-12-13T05:59:35;5.43;;;2.70;;
19798;SDS011;10059;59.850;10.454;2022-12-13T06:02:02;6.22;;;4.22;;
19798;SDS011;10059;59.850;10.454;2022-12-13T06:04:29;5.53;;;3.40;;
19798;SDS011;10059;59.850;10.454;2022-12-13T06:06:58;6.40;;;3.50;;
19798;SDS011;10059;59.850;10.454;2022-12-13T06:09:24;6.22;;;4.18;;
19798;SDS011;10059;59.850;10.454;2022-12-13T06:11:51;8.00;;;3.97;;
19798;SDS011;10059;59.850;10.454;2022-12-13T06:14:18;8.13;;;3.83;;
19798;SDS011;10059;59.850;10.454;2022-12-13T06:16:45;6.33;;;3.40;;
19798;SDS011;10059;59.850;10.454;2022-12-13T06:19:12;6.30;;;3.50;;
19798;SDS011;10059;59.850;10.454;2022-12-13T06:21:39;7.23;;;3.30;;
19798;SDS011;10059;59.850;10.454;2022-12-13T06:24:07;5.47;;;2.93;;
19798;SDS011;10059;59.850;10.454;2022-12-13T06:26:34;6.27;;;3.17;;
19798;SDS011;10059;59.850;10.454;2022-12-13T06:29:01;8.60;;;3.80;;
19798;SDS011;10059;59.850;10.454;2022-12-13T06:31:27;10.23;;;4.37;;
19798;SDS011;10059;59.850;10.454;2022-12-13T06:33:54;7.23;;;3.23;;
19798;SDS011;10059;59.850;10.454;2022-12-13T06:36:21;7.27;;;3.60;;
19798;SDS011;10059;59.850;10.454;2022-12-13T06:38:48;6.87;;;3.63;;
19798;SDS011;10059;59.850;10.454;2022-12-13T06:41:16;8.30;;;4.03;;
19798;SDS011;10059;59.850;10.454;2022-12-13T06:43:43;6.67;;;3.47;;
19798;SDS011;10059;59.850;10.454;2022-12-13T06:46:11;13.57;;;5.30;;
19798;SDS011;10059;59.850;10.454;2022-12-13T06:48:38;7.67;;;3.70;;
19798;SDS011;10059;59.850;10.454;2022-12-13T06:51:06;8.73;;;3.63;;
19798;SDS011;10059;59.850;10.454;2022-12-13T06:53:34;7.03;;;4.10;;
19798;SDS011;10059;59.850;10.454;2022-12-13T06:56:02;7.83;;;3.23;;
19798;SDS011;10059;59.850;10.454;2022-12-13T06:58:31;7.10;;;3.90;;
19798;SDS011;10059;59.850;10.454;2022-12-13T07:01:01;7.10;;;3.70;;
19798;SDS011;10059;59.850;10.454;2022-12-13T07:03:29;8.60;;;4.00;;
19798;SDS011;10059;59.850;10.454;2022-12-13T07:05:56;9.33;;;3.93;;
19798;SDS011;10059;59.850;10.454;2022-12-13T07:08:23;9.00;;;3.90;;
19798;SDS011;10059;59.850;10.454;2022-12-13T07:10:50;8.10;;;4.07;;
19798;SDS011;10059;59.850;10.454;2022-12-13T07:13:19;7.57;;;4.30;;
19798;SDS011;10059;59.850;10.454;2022-12-13T07:15:47;8.17;;;4.00;;
19798;SDS011;10059;59.850;10.454;2022-12-13T07:18:15;7.67;;;3.80;;
19798;SDS011;10059;59.850;10.454;2022-12-13T07:20:42;7.43;;;3.67;;
19798;SDS011;10059;59.850;10.454;2022-12-13T07:23:10;7.57;;;3.53;;
19798;SDS011;10059;59.850;10.454;2022-12-13T07:25:37;7.77;;;3.97;;
19798;SDS011;10059;59.850;10.454;2022-12-13T07:28:05;6.90;;;3.70;;
19798;SDS011;10059;59.850;10.454;2022-12-13T07:30:34;6.83;;;3.23;;
19798;SDS011;10059;59.850;10.454;2022-12-13T07:33:03;7.37;;;3.37;;
19798;SDS011;10059;59.850;10.454;2022-12-13T07:35:31;7.70;;;4.07;;
19798;SDS011;10059;59.850;10.454;2022-12-13T07:37:59;7.97;;;4.33;;
19798;SDS011;10059;59.850;10.454;2022-12-13T07:40:25;9.77;;;4.77;;
19798;SDS011;10059;59.850;10.454;2022-12-13T07:42:53;9.33;;;4.37;;
19798;SDS011;10059;59.850;10.454;2022-12-13T07:45:21;5.93;;;3.60;;
19798;SDS011;10059;59.850;10.454;2022-12-13T07:47:48;8.00;;;3.63;;
19798;SDS011;10059;59.850;10.454;2022-12-13T07:50:16;6.13;;;3.10;;
19798;SDS011;10059;59.850;10.454;2022-12-13T07:52:44;7.20;;;3.33;;
19798;SDS011;10059;59.850;10.454;2022-12-13T07:55:11;9.97;;;4.40;;
19798;SDS011;10059;59.850;10.454;2022-12-13T07:57:38;9.83;;;4.60;;
19798;SDS011;10059;59.850;10.454;2022-12-13T08:00:05;9.30;;;4.30;;
19798;SDS011;10059;59.850;10.454;2022-12-13T08:02:33;23.13;;;8.97;;
19798;SDS011;10059;59.850;10.454;2022-12-13T08:05:00;11.33;;;4.50;;
19798;SDS011;10059;59.850;10.454;2022-12-13T08:07:29;13.67;;;5.73;;
19798;SDS011;10059;59.850;10.454;2022-12-13T08:09:56;9.93;;;4.37;;
19798;SDS011;10059;59.850;10.454;2022-12-13T08:12:23;9.00;;;4.23;;
19798;SDS011;10059;59.850;10.454;2022-12-13T08:14:50;9.67;;;4.43;;
19798;SDS011;10059;59.850;10.454;2022-12-13T08:17:17;8.10;;;4.23;;
19798;SDS011;10059;59.850;10.454;2022-12-13T08:19:44;11.03;;;5.80;;
19798;SDS011;10059;59.850;10.454;2022-12-13T08:22:11;8.27;;;3.83;;
19798;SDS011;10059;59.850;10.454;2022-12-13T08:24:40;12.17;;;6.17;;
19798;SDS011;10059;59.850;10.454;2022-12-13T08:27:06;8.57;;;4.20;;
19798;SDS011;10059;59.850;10.454;2022-12-13T08:29:33;9.47;;;5.03;;
19798;SDS011;10059;59.850;10.454;2022-12-13T08:32:01;9.30;;;5.07;;
19798;SDS011;10059;59.850;10.454;2022-12-13T08:34:29;6.53;;;4.07;;
19798;SDS011;10059;59.850;10.454;2022-12-13T08:36:56;8.93;;;4.37;;
19798;SDS011;10059;59.850;10.454;2022-12-13T08:39:24;7.43;;;4.30;;
19798;SDS011;10059;59.850;10.454;2022-12-13T08:41:52;13.97;;;6.50;;
19798;SDS011;10059;59.850;10.454;2022-12-13T08:44:19;10.87;;;5.10;;
19798;SDS011;10059;59.850;10.454;2022-12-13T08:46:46;8.03;;;3.70;;
19798;SDS011;10059;59.850;10.454;2022-12-13T08:49:12;5.73;;;3.60;;
19798;SDS011;10059;59.850;10.454;2022-12-13T08:51:39;5.77;;;3.47;;
19798;SDS011;10059;59.850;10.454;2022-12-13T08:54:06;6.37;;;3.57;;
19798;SDS011;10059;59.850;10.454;2022-12-13T08:56:33;7.67;;;3.37;;
19798;SDS011;10059;59.850;10.454;2022-12-13T08:59:01;6.90;;;3.63;;
19798;SDS011;10059;59.850;10.454;2022-12-13T09:01:28;5.93;;;3.40;;
19798;SDS011;10059;59.850;10.454;2022-12-13T09:03:55;6.03;;;3.60;;
19798;SDS011;10059;59.850;10.454;2022-12-13T09:06:22;7.17;;;4.10;;
19798;SDS011;10059;59.850;10.454;2022-12-13T09:08:51;7.37;;;3.90;;
19798;SDS011;10059;59.850;10.454;2022-12-13T09:11:18;7.70;;;3.73;;
19798;SDS011;10059;59.850;10.454;2022-12-13T09:13:45;4.97;;;3.00;;
19798;SDS011;10059;59.850;10.454;2022-12-13T09:16:15;7.37;;;3.60;;
19798;SDS011;10059;59.850;10.454;2022-12-13T09:18:43;10.40;;;4.73;;
19798;SDS011;10059;59.850;10.454;2022-12-13T09:21:11;9.00;;;4.37;;
19798;SDS011;10059;59.850;10.454;2022-12-13T09:23:39;9.83;;;4.63;;
19798;SDS011;10059;59.850;10.454;2022-12-13T09:26:07;7.90;;;4.63;;
19798;SDS011;10059;59.850;10.454;2022-12-13T09:28:36;9.17;;;4.37;;
19798;SDS011;10059;59.850;10.454;2022-12-13T09:31:05;7.43;;;3.80;;
19798;SDS011;10059;59.850;10.454;2022-12-13T09:33:34;37.07;;;16.13;;
19798;SDS011;10059;59.850;10.454;2022-12-13T09:36:02;26.53;;;11.93;;
19798;SDS011;10059;59.850;10.454;2022-12-13T09:38:30;24.80;;;11.20;;
19798;SDS011;10059;59.850;10.454;2022-12-13T09:40:58;48.33;;;17.93;;
19798;SDS011;10059;59.850;10.454;2022-12-13T09:43:29;30.17;;;11.73;;
19798;SDS011;10059;59.850;10.454;2022-12-13T09:45:58;12.30;;;6.53;;
19798;SDS011;10059;59.850;10.454;2022-12-13T09:48:29;13.80;;;6.13;;
19798;SDS011;10059;59.850;10.454;2022-12-13T09:50:57;18.53;;;8.87;;
19798;SDS011;10059;59.850;10.454;2022-12-13T09:53:25;17.27;;;8.23;;
19798;SDS011;10059;59.850;10.454;2022-12-13T09:55:52;18.77;;;8.00;;
19798;SDS011;10059;59.850;10.454;2022-12-13T09:58:20;22.20;;;8.93;;
19798;SDS011;10059;59.850;10.454;2022-12-13T10:00:51;27.37;;;10.70;;
19798;SDS011;10059;59.850;10.454;2022-12-13T10:03:20;23.37;;;9.90;;
19798;SDS011;10059;59.850;10.454;2022-12-13T10:05:50;19.17;;;8.73;;
19798;SDS011;10059;59.850;10.454;2022-12-13T10:08:26;14.03;;;6.50;;
19798;SDS011;10059;59.850;10.454;2022-12-13T10:10:56;26.67;;;10.73;;
19798;SDS011;10059;59.850;10.454;2022-12-13T10:13:24;21.00;;;9.83;;
19798;SDS011;10059;59.850;10.454;2022-12-13T10:15:58;17.83;;;8.60;;
19798;SDS011;10059;59.850;10.454;2022-12-13T10:18:30;18.40;;;9.20;;
19798;SDS011;10059;59.850;10.454;2022-12-13T10:21:00;20.27;;;8.60;;
19798;SDS011;10059;59.850;10.454;2022-12-13T10:23:32;20.57;;;8.10;;
19798;SDS011;10059;59.850;10.454;2022-12-13T10:25:59;21.27;;;9.43;;
19798;SDS011;10059;59.850;10.454;2022-12-13T10:28:28;16.30;;;7.90;;
19798;SDS011;10059;59.850;10.454;2022-12-13T10:30:56;19.90;;;9.10;;
19798;SDS011;10059;59.850;10.454;2022-12-13T10:33:25;16.20;;;7.47;;
19798;SDS011;10059;59.850;10.454;2022-12-13T10:36:04;16.10;;;7.00;;
19798;SDS011;10059;59.850;10.454;2022-12-13T10:38:42;14.67;;;6.83;;
19798;SDS011;10059;59.850;10.454;2022-12-13T10:44:05;13.70;;;6.23;;
19798;SDS011;10059;59.850;10.454;2022-12-13T10:46:50;17.83;;;7.23;;
19798;SDS011;10059;59.850;10.454;2022-12-13T10:49:33;16.67;;;7.53;;
19798;SDS011;10059;59.850;10.454;2022-12-13T10:52:04;18.10;;;7.73;;
19798;SDS011;10059;59.850;10.454;2022-12-13T10:54:47;18.43;;;7.70;;
19798;SDS011;10059;59.850;10.454;2022-12-13T10:57:15;21.03;;;10.10;;
19798;SDS011;10059;59.850;10.454;2022-12-13T10:59:44;27.47;;;11.43;;
19798;SDS011;10059;59.850;10.454;2022-12-13T11:02:24;23.83;;;11.93;;
19798;SDS011;10059;59.850;10.454;2022-12-13T11:04:54;11.30;;;5.70;;
19798;SDS011;10059;59.850;10.454;2022-12-13T11:07:23;14.13;;;6.60;;
19798;SDS011;10059;59.850;10.454;2022-12-13T11:09:53;46.97;;;16.00;;
19798;SDS011;10059;59.850;10.454;2022-12-13T11:12:21;32.13;;;14.63;;
19798;SDS011;10059;59.850;10.454;2022-12-13T11:14:52;17.67;;;8.77;;
19798;SDS011;10059;59.850;10.454;2022-12-13T11:17:21;15.50;;;7.43;;
19798;SDS011;10059;59.850;10.454;2022-12-13T11:19:51;15.67;;;6.53;;
19798;SDS011;10059;59.850;10.454;2022-12-13T11:22:20;19.43;;;9.07;;
19798;SDS011;10059;59.850;10.454;2022-12-13T11:24:50;24.53;;;10.00;;
19798;SDS011;10059;59.850;10.454;2022-12-13T11:27:27;26.90;;;10.10;;
19798;SDS011;10059;59.850;10.454;2022-12-13T11:30:09;23.07;;;9.27;;
19798;SDS011;10059;59.850;10.454;2022-12-13T11:32:47;19.27;;;8.77;;
19798;SDS011;10059;59.850;10.454;2022-12-13T11:35:31;22.10;;;9.93;;
19798;SDS011;10059;59.850;10.454;2022-12-13T11:38:09;24.70;;;9.80;;
19798;SDS011;10059;59.850;10.454;2022-12-13T11:40:48;26.83;;;11.03;;
19798;SDS011;10059;59.850;10.454;2022-12-13T11:43:24;18.87;;;9.37;;
19798;SDS011;10059;59.850;10.454;2022-12-13T11:45:59;19.30;;;8.73;;
19798;SDS011;10059;59.850;10.454;2022-12-13T11:48:31;22.77;;;9.50;;
19798;SDS011;10059;59.850;10.454;2022-12-13T11:51:04;17.40;;;8.23;;
19798;SDS011;10059;59.850;10.454;2022-12-13T11:53:34;18.20;;;8.00;;
19798;SDS011;10059;59.850;10.454;2022-12-13T11:56:11;10.83;;;5.77;;
19798;SDS011;10059;59.850;10.454;2022-12-13T11:58:47;23.77;;;10.73;;
19798;SDS011;10059;59.850;10.454;2022-12-13T12:01:20;19.90;;;9.27;;
19798;SDS011;10059;59.850;10.454;2022-12-13T12:03:53;67.67;;;27.57;;
19798;SDS011;10059;59.850;10.454;2022-12-13T12:06:28;25.60;;;11.07;;
19798;SDS011;10059;59.850;10.454;2022-12-13T12:09:03;29.63;;;12.90;;
19798;SDS011;10059;59.850;10.454;2022-12-13T12:11:33;27.70;;;11.90;;
19798;SDS011;10059;59.850;10.454;2022-12-13T12:14:08;31.57;;;14.23;;
19798;SDS011;10059;59.850;10.454;2022-12-13T12:16:39;26.10;;;11.33;;
19798;SDS011;10059;59.850;10.454;2022-12-13T12:19:11;20.30;;;7.87;;
19798;SDS011;10059;59.850;10.454;2022-12-13T12:21:44;22.40;;;10.07;;
19798;SDS011;10059;59.850;10.454;2022-12-13T12:24:27;21.30;;;9.10;;
19798;SDS011;10059;59.850;10.454;2022-12-13T12:27:06;14.70;;;7.27;;
19798;SDS011;10059;59.850;10.454;2022-12-13T12:29:53;15.63;;;7.20;;
19798;SDS011;10059;59.850;10.454;2022-12-13T12:32:45;20.93;;;8.70;;
19798;SDS011;10059;59.850;10.454;2022-12-13T12:35:18;19.83;;;9.20;;
19798;SDS011;10059;59.850;10.454;2022-12-13T12:37:58;17.00;;;8.13;;
19798;SDS011;10059;59.850;10.454;2022-12-13T12:40:43;13.07;;;6.67;;
19798;SDS011;10059;59.850;10.454;2022-12-13T12:43:21;15.80;;;7.77;;
19798;SDS011;10059;59.850;10.454;2022-12-13T12:46:00;20.43;;;8.50;;
19798;SDS011;10059;59.850;10.454;2022-12-13T12:48:47;21.83;;;8.27;;
19798;SDS011;10059;59.850;10.454;2022-12-13T12:51:39;44.33;;;18.37;;
19798;SDS011;10059;59.850;10.454;2022-12-13T12:54:17;19.27;;;9.43;;
19798;SDS011;10059;59.850;10.454;2022-12-13T12:56:56;24.33;;;10.03;;
19798;SDS011;10059;59.850;10.454;2022-12-13T12:59:30;21.17;;;9.67;;
19798;SDS011;10059;59.850;10.454;2022-12-13T13:02:09;23.00;;;9.70;;
19798;SDS011;10059;59.850;10.454;2022-12-13T13:04:44;20.37;;;9.50;;
19798;SDS011;10059;59.850;10.454;2022-12-13T13:07:14;20.73;;;9.13;;
19798;SDS011;10059;59.850;10.454;2022-12-13T13:09:45;27.97;;;10.60;;
19798;SDS011;10059;59.850;10.454;2022-12-13T13:12:12;37.20;;;12.53;;
19798;SDS011;10059;59.850;10.454;2022-12-13T13:14:40;36.27;;;14.20;;
19798;SDS011;10059;59.850;10.454;2022-12-13T13:20:20;28.77;;;12.27;;
19798;SDS011;10059;59.850;10.454;2022-12-13T13:22:51;25.57;;;11.50;;
19798;SDS011;10059;59.850;10.454;2022-12-13T13:25:23;34.40;;;13.17;;
19798;SDS011;10059;59.850;10.454;2022-12-13T13:27:59;23.73;;;10.87;;
19798;SDS011;10059;59.850;10.454;2022-12-13T13:30:28;27.97;;;10.53;;
19798;SDS011;10059;59.850;10.454;2022-12-13T13:32:56;30.97;;;14.37;;
19798;SDS011;10059;59.850;10.454;2022-12-13T13:38:28;22.73;;;11.00;;
19798;SDS011;10059;59.850;10.454;2022-12-13T13:47:10;30.90;;;13.53;;
19798;SDS011;10059;59.850;10.454;2022-12-13T13:49:41;32.27;;;13.37;;
19798;SDS011;10059;59.850;10.454;2022-12-13T13:52:21;29.70;;;12.33;;
19798;SDS011;10059;59.850;10.454;2022-12-13T13:55:07;28.90;;;12.33;;
19798;SDS011;10059;59.850;10.454;2022-12-13T13:57:58;27.33;;;11.67;;
19798;SDS011;10059;59.850;10.454;2022-12-13T14:00:53;29.03;;;12.17;;
19798;SDS011;10059;59.850;10.454;2022-12-13T14:06:46;28.50;;;12.03;;
19798;SDS011;10059;59.850;10.454;2022-12-13T14:12:54;42.37;;;16.37;;
19798;SDS011;10059;59.850;10.454;2022-12-13T14:19:13;54.67;;;19.67;;
19798;SDS011;10059;59.850;10.454;2022-12-13T14:22:06;70.57;;;23.90;;
19798;SDS011;10059;59.850;10.454;2022-12-13T14:24:43;57.37;;;20.50;;
19798;SDS011;10059;59.850;10.454;2022-12-13T14:27:24;42.87;;;17.80;;
19798;SDS011;10059;59.850;10.454;2022-12-13T14:30:00;79.33;;;32.57;;
19798;SDS011;10059;59.850;10.454;2022-12-13T14:32:28;50.10;;;19.13;;
19798;SDS011;10059;59.850;10.454;2022-12-13T14:34:57;47.20;;;18.67;;
19798;SDS011;10059;59.850;10.454;2022-12-13T14:37:26;33.67;;;14.53;;
19798;SDS011;10059;59.850;10.454;2022-12-13T14:39:54;26.40;;;12.40;;
19798;SDS011;10059;59.850;10.454;2022-12-13T14:42:23;23.40;;;11.23;;
19798;SDS011;10059;59.850;10.454;2022-12-13T14:44:53;27.40;;;12.43;;
19798;SDS011;10059;59.850;10.454;2022-12-13T14:47:20;29.33;;;12.27;;
19798;SDS011;10059;59.850;10.454;2022-12-13T14:49:50;31.60;;;12.77;;
19798;SDS011;10059;59.850;10.454;2022-12-13T14:52:20;35.33;;;15.27;;
19798;SDS011;10059;59.850;10.454;2022-12-13T14:54:49;35.23;;;14.53;;
19798;SDS011;10059;59.850;10.454;2022-12-13T14:57:19;27.43;;;13.10;;
19798;SDS011;10059;59.850;10.454;2022-12-13T14:59:49;31.20;;;14.27;;
19798;SDS011;10059;59.850;10.454;2022-12-13T15:02:18;37.57;;;16.13;;
19798;SDS011;10059;59.850;10.454;2022-12-13T15:04:47;33.87;;;14.83;;
19798;SDS011;10059;59.850;10.454;2022-12-13T15:07:22;47.97;;;18.57;;
19798;SDS011;10059;59.850;10.454;2022-12-13T15:09:52;31.60;;;14.63;;
19798;SDS011;10059;59.850;10.454;2022-12-13T15:12:21;30.00;;;13.60;;
19798;SDS011;10059;59.850;10.454;2022-12-13T15:14:50;21.70;;;10.63;;